sensor_id;sensor_type;location;lat;lon;timestamp;P1;durP1;ratioP1;P2;durP2;ratioP2
51296;SDS011;37380;45.186;9.792;2023-05-10T00:02:28;19.85;;;17.73;;
51296;SDS011;37380;45.186;9.792;2023-05-10T00:04:56;20.58;;;18.45;;
51296;SDS011;37380;45.186;9.792;2023-05-10T00:07:28;17.90;;;15.98;;
51296;SDS011;37380;45.186;9.792;2023-05-10T00:09:56;19.20;;;17.20;;
51296;SDS011;37380;45.186;9.792;2023-05-10T00:12:23;20.52;;;18.52;;
51296;SDS011;37380;45.186;9.792;2023-05-10T00:14:50;21.88;;;19.58;;
51296;SDS011;37380;45.186;9.792;2023-05-10T00:17:17;20.20;;;17.98;;
51296;SDS011;37380;45.186;9.792;2023-05-10T00:19:51;29.00;;;19.33;;
51296;SDS011;37380;45.186;9.792;2023-05-10T00:22:45;23.38;;;20.98;;
51296;SDS011;37380;45.186;9.792;2023-05-10T00:25:12;23.30;;;20.83;;
51296;SDS011;37380;45.186;9.792;2023-05-10T00:27:40;27.27;;;21.60;;
51296;SDS011;37380;45.186;9.792;2023-05-10T00:30:07;28.80;;;21.48;;
51296;SDS011;37380;45.186;9.792;2023-05-10T00:32:41;23.90;;;21.08;;
51296;SDS011;37380;45.186;9.792;2023-05-10T00:35:43;21.88;;;19.55;;
51296;SDS011;37380;45.186;9.792;2023-05-10T00:38:30;24.73;;;17.35;;
51296;SDS011;37380;45.186;9.792;2023-05-10T00:40:57;17.70;;;16.02;;
51296;SDS011;37380;45.186;9.792;2023-05-10T00:43:29;19.52;;;17.83;;
51296;SDS011;37380;45.186;9.792;2023-05-10T00:45:56;18.33;;;14.23;;
51296;SDS011;37380;45.186;9.792;2023-05-10T00:48:23;20.83;;;18.25;;
51296;SDS011;37380;45.186;9.792;2023-05-10T00:50:50;21.42;;;18.05;;
51296;SDS011;37380;45.186;9.792;2023-05-10T00:53:18;19.20;;;17.30;;
51296;SDS011;37380;45.186;9.792;2023-05-10T00:55:46;27.40;;;18.27;;
51296;SDS011;37380;45.186;9.792;2023-05-10T00:58:13;21.42;;;19.17;;
51296;SDS011;37380;45.186;9.792;2023-05-10T01:00:41;21.63;;;19.42;;
51296;SDS011;37380;45.186;9.792;2023-05-10T01:03:10;23.45;;;19.42;;
51296;SDS011;37380;45.186;9.792;2023-05-10T01:05:38;24.67;;;21.85;;
51296;SDS011;37380;45.186;9.792;2023-05-10T01:08:05;17.42;;;15.20;;
51296;SDS011;37380;45.186;9.792;2023-05-10T01:10:35;21.52;;;19.42;;
51296;SDS011;37380;45.186;9.792;2023-05-10T01:13:03;22.13;;;20.13;;
51296;SDS011;37380;45.186;9.792;2023-05-10T01:15:31;23.23;;;20.98;;
51296;SDS011;37380;45.186;9.792;2023-05-10T01:18:05;29.83;;;22.65;;
51296;SDS011;37380;45.186;9.792;2023-05-10T01:21:23;22.63;;;17.48;;
51296;SDS011;37380;45.186;9.792;2023-05-10T01:26:56;24.60;;;22.10;;
51296;SDS011;37380;45.186;9.792;2023-05-10T01:32:26;26.65;;;23.80;;
51296;SDS011;37380;45.186;9.792;2023-05-10T01:35:17;26.40;;;21.98;;
51296;SDS011;37380;45.186;9.792;2023-05-10T01:41:07;32.88;;;26.13;;
51296;SDS011;37380;45.186;9.792;2023-05-10T01:43:26;32.22;;;27.75;;
51296;SDS011;37380;45.186;9.792;2023-05-10T01:46:05;27.63;;;24.10;;
51296;SDS011;37380;45.186;9.792;2023-05-10T01:48:38;34.08;;;30.05;;
51296;SDS011;37380;45.186;9.792;2023-05-10T01:51:17;30.85;;;27.65;;
51296;SDS011;37380;45.186;9.792;2023-05-10T01:53:49;37.33;;;29.83;;
51296;SDS011;37380;45.186;9.792;2023-05-10T01:56:21;33.50;;;27.85;;
51296;SDS011;37380;45.186;9.792;2023-05-10T01:58:54;21.90;;;19.58;;
51296;SDS011;37380;45.186;9.792;2023-05-10T02:01:23;28.58;;;24.52;;
51296;SDS011;37380;45.186;9.792;2023-05-10T02:03:52;35.88;;;28.58;;
51296;SDS011;37380;45.186;9.792;2023-05-10T02:06:22;37.60;;;32.38;;
51296;SDS011;37380;45.186;9.792;2023-05-10T02:08:52;27.30;;;24.42;;
51296;SDS011;37380;45.186;9.792;2023-05-10T02:11:20;33.92;;;28.40;;
51296;SDS011;37380;45.186;9.792;2023-05-10T02:13:51;40.47;;;31.88;;
51296;SDS011;37380;45.186;9.792;2023-05-10T02:16:24;33.72;;;30.23;;
51296;SDS011;37380;45.186;9.792;2023-05-10T02:19:01;34.28;;;30.83;;
51296;SDS011;37380;45.186;9.792;2023-05-10T02:22:04;36.53;;;32.57;;
51296;SDS011;37380;45.186;9.792;2023-05-10T02:24:59;22.30;;;20.08;;
51296;SDS011;37380;45.186;9.792;2023-05-10T02:27:28;32.10;;;27.85;;
51296;SDS011;37380;45.186;9.792;2023-05-10T02:29:56;25.25;;;22.65;;
51296;SDS011;37380;45.186;9.792;2023-05-10T02:32:26;28.50;;;25.67;;
51296;SDS011;37380;45.186;9.792;2023-05-10T02:34:55;31.08;;;27.92;;
51296;SDS011;37380;45.186;9.792;2023-05-10T02:37:24;34.22;;;30.27;;
51296;SDS011;37380;45.186;9.792;2023-05-10T02:39:54;26.45;;;23.80;;
51296;SDS011;37380;45.186;9.792;2023-05-10T02:42:24;23.70;;;21.20;;
51296;SDS011;37380;45.186;9.792;2023-05-10T02:44:56;25.48;;;22.15;;
51296;SDS011;37380;45.186;9.792;2023-05-10T02:47:29;25.08;;;22.40;;
51296;SDS011;37380;45.186;9.792;2023-05-10T02:49:56;20.33;;;18.23;;
51296;SDS011;37380;45.186;9.792;2023-05-10T02:52:28;23.75;;;19.35;;
51296;SDS011;37380;45.186;9.792;2023-05-10T02:55:03;18.27;;;16.48;;
51296;SDS011;37380;45.186;9.792;2023-05-10T02:57:33;29.65;;;19.77;;
51296;SDS011;37380;45.186;9.792;2023-05-10T03:00:02;20.92;;;17.75;;
51296;SDS011;37380;45.186;9.792;2023-05-10T03:02:30;21.17;;;18.75;;
51296;SDS011;37380;45.186;9.792;2023-05-10T03:04:58;19.48;;;16.65;;
51296;SDS011;37380;45.186;9.792;2023-05-10T03:07:25;19.30;;;17.25;;
51296;SDS011;37380;45.186;9.792;2023-05-10T03:09:53;20.75;;;18.77;;
51296;SDS011;37380;45.186;9.792;2023-05-10T03:12:38;27.58;;;20.60;;
51296;SDS011;37380;45.186;9.792;2023-05-10T03:18:33;23.05;;;17.40;;
51296;SDS011;37380;45.186;9.792;2023-05-10T03:21:44;22.33;;;20.25;;
51296;SDS011;37380;45.186;9.792;2023-05-10T03:24:16;27.25;;;24.25;;
51296;SDS011;37380;45.186;9.792;2023-05-10T03:26:48;25.27;;;21.63;;
51296;SDS011;37380;45.186;9.792;2023-05-10T03:29:17;25.35;;;22.23;;
51296;SDS011;37380;45.186;9.792;2023-05-10T03:31:45;27.95;;;23.08;;
51296;SDS011;37380;45.186;9.792;2023-05-10T03:34:14;28.52;;;25.58;;
51296;SDS011;37380;45.186;9.792;2023-05-10T03:36:44;28.13;;;21.83;;
51296;SDS011;37380;45.186;9.792;2023-05-10T03:39:14;24.17;;;21.63;;
51296;SDS011;37380;45.186;9.792;2023-05-10T03:41:51;31.60;;;23.90;;
51296;SDS011;37380;45.186;9.792;2023-05-10T03:44:18;16.60;;;14.93;;
51296;SDS011;37380;45.186;9.792;2023-05-10T03:46:46;19.88;;;17.60;;
51296;SDS011;37380;45.186;9.792;2023-05-10T03:49:13;19.42;;;17.55;;
51296;SDS011;37380;45.186;9.792;2023-05-10T03:51:44;33.30;;;17.58;;
51296;SDS011;37380;45.186;9.792;2023-05-10T03:54:11;16.17;;;13.32;;
51296;SDS011;37380;45.186;9.792;2023-05-10T03:56:44;12.43;;;11.25;;
51296;SDS011;37380;45.186;9.792;2023-05-10T03:59:11;14.85;;;11.88;;
51296;SDS011;37380;45.186;9.792;2023-05-10T04:01:38;12.27;;;11.18;;
51296;SDS011;37380;45.186;9.792;2023-05-10T04:04:05;14.95;;;13.40;;
51296;SDS011;37380;45.186;9.792;2023-05-10T04:06:32;10.48;;;9.48;;
51296;SDS011;37380;45.186;9.792;2023-05-10T04:09:01;9.98;;;9.15;;
51296;SDS011;37380;45.186;9.792;2023-05-10T04:11:30;9.38;;;8.48;;
51296;SDS011;37380;45.186;9.792;2023-05-10T04:13:58;8.40;;;7.75;;
51296;SDS011;37380;45.186;9.792;2023-05-10T04:16:25;11.82;;;9.30;;
51296;SDS011;37380;45.186;9.792;2023-05-10T04:18:58;9.68;;;8.85;;
51296;SDS011;37380;45.186;9.792;2023-05-10T04:21:59;10.25;;;9.23;;
51296;SDS011;37380;45.186;9.792;2023-05-10T04:24:47;18.70;;;8.35;;
51296;SDS011;37380;45.186;9.792;2023-05-10T04:27:14;10.27;;;9.35;;
51296;SDS011;37380;45.186;9.792;2023-05-10T04:29:41;12.98;;;11.35;;
51296;SDS011;37380;45.186;9.792;2023-05-10T04:32:08;11.13;;;10.07;;
51296;SDS011;37380;45.186;9.792;2023-05-10T04:34:43;9.80;;;8.82;;
51296;SDS011;37380;45.186;9.792;2023-05-10T04:37:39;9.25;;;8.32;;
51296;SDS011;37380;45.186;9.792;2023-05-10T04:40:06;11.13;;;9.98;;
51296;SDS011;37380;45.186;9.792;2023-05-10T04:42:33;9.75;;;8.65;;
51296;SDS011;37380;45.186;9.792;2023-05-10T04:45:00;13.80;;;11.15;;
51296;SDS011;37380;45.186;9.792;2023-05-10T04:47:27;11.20;;;9.13;;
51296;SDS011;37380;45.186;9.792;2023-05-10T04:49:54;8.13;;;7.18;;
51296;SDS011;37380;45.186;9.792;2023-05-10T04:52:22;13.85;;;7.40;;
51296;SDS011;37380;45.186;9.792;2023-05-10T04:54:49;13.27;;;9.13;;
51296;SDS011;37380;45.186;9.792;2023-05-10T04:57:17;15.57;;;8.45;;
51296;SDS011;37380;45.186;9.792;2023-05-10T04:59:44;9.73;;;8.73;;
51296;SDS011;37380;45.186;9.792;2023-05-10T05:02:14;12.13;;;8.65;;
51296;SDS011;37380;45.186;9.792;2023-05-10T05:04:41;12.45;;;9.52;;
51296;SDS011;37380;45.186;9.792;2023-05-10T05:07:08;10.27;;;8.80;;
51296;SDS011;37380;45.186;9.792;2023-05-10T05:09:37;10.25;;;7.70;;
51296;SDS011;37380;45.186;9.792;2023-05-10T05:12:04;9.50;;;8.57;;
51296;SDS011;37380;45.186;9.792;2023-05-10T05:14:31;11.23;;;9.75;;
51296;SDS011;37380;45.186;9.792;2023-05-10T05:16:58;11.63;;;9.77;;
51296;SDS011;37380;45.186;9.792;2023-05-10T05:19:32;9.05;;;8.13;;
51296;SDS011;37380;45.186;9.792;2023-05-10T05:22:33;10.82;;;9.38;;
51296;SDS011;37380;45.186;9.792;2023-05-10T05:25:29;12.57;;;9.32;;
51296;SDS011;37380;45.186;9.792;2023-05-10T05:27:56;7.38;;;6.72;;
51296;SDS011;37380;45.186;9.792;2023-05-10T05:30:23;10.80;;;9.02;;
51296;SDS011;37380;45.186;9.792;2023-05-10T05:32:50;7.20;;;6.60;;
51296;SDS011;37380;45.186;9.792;2023-05-10T05:35:17;9.98;;;8.52;;
51296;SDS011;37380;45.186;9.792;2023-05-10T05:37:45;7.80;;;6.78;;
51296;SDS011;37380;45.186;9.792;2023-05-10T05:40:12;10.15;;;7.95;;
51296;SDS011;37380;45.186;9.792;2023-05-10T05:42:40;8.88;;;8.10;;
51296;SDS011;37380;45.186;9.792;2023-05-10T05:45:08;12.55;;;8.50;;
51296;SDS011;37380;45.186;9.792;2023-05-10T05:47:39;10.30;;;8.48;;
51296;SDS011;37380;45.186;9.792;2023-05-10T05:50:07;13.75;;;9.02;;
51296;SDS011;37380;45.186;9.792;2023-05-10T05:52:34;7.95;;;7.32;;
51296;SDS011;37380;45.186;9.792;2023-05-10T05:55:01;8.50;;;7.32;;
51296;SDS011;37380;45.186;9.792;2023-05-10T05:57:29;7.60;;;6.85;;
51296;SDS011;37380;45.186;9.792;2023-05-10T05:59:56;10.32;;;9.30;;
51296;SDS011;37380;45.186;9.792;2023-05-10T06:02:23;8.13;;;7.43;;
51296;SDS011;37380;45.186;9.792;2023-05-10T06:04:50;14.68;;;8.25;;
51296;SDS011;37380;45.186;9.792;2023-05-10T06:07:18;14.57;;;9.40;;
51296;SDS011;37380;45.186;9.792;2023-05-10T06:09:45;13.80;;;8.05;;
51296;SDS011;37380;45.186;9.792;2023-05-10T06:12:19;9.98;;;8.75;;
51296;SDS011;37380;45.186;9.792;2023-05-10T06:15:13;10.98;;;8.23;;
51296;SDS011;37380;45.186;9.792;2023-05-10T06:17:46;8.95;;;8.05;;
51296;SDS011;37380;45.186;9.792;2023-05-10T06:20:49;9.98;;;7.68;;
51296;SDS011;37380;45.186;9.792;2023-05-10T06:23:19;7.35;;;6.68;;
51296;SDS011;37380;45.186;9.792;2023-05-10T06:25:46;8.75;;;8.00;;
51296;SDS011;37380;45.186;9.792;2023-05-10T06:28:13;9.20;;;8.40;;
51296;SDS011;37380;45.186;9.792;2023-05-10T06:30:40;8.55;;;7.82;;
51296;SDS011;37380;45.186;9.792;2023-05-10T06:33:07;9.95;;;8.95;;
51296;SDS011;37380;45.186;9.792;2023-05-10T06:35:41;10.48;;;9.52;;
51296;SDS011;37380;45.186;9.792;2023-05-10T06:38:42;8.38;;;7.68;;
51296;SDS011;37380;45.186;9.792;2023-05-10T06:41:38;10.35;;;9.55;;
51296;SDS011;37380;45.186;9.792;2023-05-10T06:44:05;15.77;;;10.00;;
51296;SDS011;37380;45.186;9.792;2023-05-10T06:46:32;11.25;;;10.18;;
51296;SDS011;37380;45.186;9.792;2023-05-10T06:48:59;11.70;;;10.27;;
51296;SDS011;37380;45.186;9.792;2023-05-10T06:51:26;9.75;;;8.85;;
51296;SDS011;37380;45.186;9.792;2023-05-10T06:53:53;16.70;;;9.63;;
51296;SDS011;37380;45.186;9.792;2023-05-10T06:56:20;11.75;;;9.20;;
51296;SDS011;37380;45.186;9.792;2023-05-10T06:58:48;10.70;;;9.57;;
51296;SDS011;37380;45.186;9.792;2023-05-10T07:01:15;11.73;;;9.35;;
51296;SDS011;37380;45.186;9.792;2023-05-10T07:03:43;8.50;;;7.55;;
51296;SDS011;37380;45.186;9.792;2023-05-10T07:06:10;13.82;;;8.45;;
51296;SDS011;37380;45.186;9.792;2023-05-10T07:08:56;11.80;;;7.78;;
51296;SDS011;37380;45.186;9.792;2023-05-10T07:11:30;8.40;;;7.28;;
51296;SDS011;37380;45.186;9.792;2023-05-10T07:14:25;8.82;;;8.13;;
51296;SDS011;37380;45.186;9.792;2023-05-10T07:16:52;7.90;;;6.70;;
51296;SDS011;37380;45.186;9.792;2023-05-10T07:19:25;8.23;;;6.38;;
51296;SDS011;37380;45.186;9.792;2023-05-10T07:22:20;8.10;;;7.25;;
51296;SDS011;37380;45.186;9.792;2023-05-10T07:24:48;6.68;;;6.03;;
51296;SDS011;37380;45.186;9.792;2023-05-10T07:27:15;6.05;;;5.40;;
51296;SDS011;37380;45.186;9.792;2023-05-10T07:29:42;6.75;;;6.25;;
51296;SDS011;37380;45.186;9.792;2023-05-10T07:32:09;11.65;;;6.78;;
51296;SDS011;37380;45.186;9.792;2023-05-10T07:34:36;5.38;;;4.93;;
51296;SDS011;37380;45.186;9.792;2023-05-10T07:37:03;9.90;;;5.70;;
51296;SDS011;37380;45.186;9.792;2023-05-10T07:39:30;6.72;;;6.07;;
51296;SDS011;37380;45.186;9.792;2023-05-10T07:41:57;6.38;;;5.80;;
51296;SDS011;37380;45.186;9.792;2023-05-10T07:44:25;4.70;;;4.13;;
51296;SDS011;37380;45.186;9.792;2023-05-10T07:46:53;6.63;;;6.00;;
51296;SDS011;37380;45.186;9.792;2023-05-10T07:49:20;7.93;;;4.75;;
51296;SDS011;37380;45.186;9.792;2023-05-10T07:51:47;5.75;;;5.25;;
51296;SDS011;37380;45.186;9.792;2023-05-10T07:54:15;7.10;;;6.35;;
51296;SDS011;37380;45.186;9.792;2023-05-10T07:56:42;6.75;;;5.65;;
51296;SDS011;37380;45.186;9.792;2023-05-10T07:59:16;17.58;;;5.85;;
51296;SDS011;37380;45.186;9.792;2023-05-10T08:01:44;6.93;;;5.40;;
51296;SDS011;37380;45.186;9.792;2023-05-10T08:04:11;7.30;;;6.60;;
51296;SDS011;37380;45.186;9.792;2023-05-10T08:06:42;5.65;;;5.15;;
51296;SDS011;37380;45.186;9.792;2023-05-10T08:09:09;7.03;;;6.22;;
51296;SDS011;37380;45.186;9.792;2023-05-10T08:14:43;4.47;;;4.05;;
51296;SDS011;37380;45.186;9.792;2023-05-10T08:17:11;5.18;;;4.68;;
51296;SDS011;37380;45.186;9.792;2023-05-10T08:19:44;6.55;;;5.97;;
51296;SDS011;37380;45.186;9.792;2023-05-10T08:22:45;8.77;;;6.68;;
51296;SDS011;37380;45.186;9.792;2023-05-10T08:25:40;11.77;;;5.70;;
51296;SDS011;37380;45.186;9.792;2023-05-10T08:28:07;5.93;;;5.43;;
51296;SDS011;37380;45.186;9.792;2023-05-10T08:30:36;7.32;;;5.35;;
51296;SDS011;37380;45.186;9.792;2023-05-10T08:33:03;5.80;;;5.30;;
51296;SDS011;37380;45.186;9.792;2023-05-10T08:35:31;5.30;;;4.15;;
51296;SDS011;37380;45.186;9.792;2023-05-10T08:37:59;8.48;;;5.32;;
51296;SDS011;37380;45.186;9.792;2023-05-10T08:40:26;5.07;;;4.68;;
51296;SDS011;37380;45.186;9.792;2023-05-10T08:42:59;8.35;;;4.93;;
51296;SDS011;37380;45.186;9.792;2023-05-10T08:45:39;6.03;;;5.53;;
51296;SDS011;37380;45.186;9.792;2023-05-10T08:48:08;5.85;;;5.35;;
51296;SDS011;37380;45.186;9.792;2023-05-10T08:50:37;6.53;;;5.88;;
51296;SDS011;37380;45.186;9.792;2023-05-10T08:53:06;15.75;;;7.47;;
51296;SDS011;37380;45.186;9.792;2023-05-10T08:55:36;10.20;;;8.25;;
51296;SDS011;37380;45.186;9.792;2023-05-10T08:58:05;8.90;;;7.03;;
51296;SDS011;37380;45.186;9.792;2023-05-10T09:00:33;7.13;;;6.50;;
51296;SDS011;37380;45.186;9.792;2023-05-10T09:03:02;18.52;;;7.10;;
51296;SDS011;37380;45.186;9.792;2023-05-10T09:05:30;11.20;;;7.10;;
51296;SDS011;37380;45.186;9.792;2023-05-10T09:07:57;9.23;;;5.43;;
51296;SDS011;37380;45.186;9.792;2023-05-10T09:10:27;7.18;;;5.82;;
51296;SDS011;37380;45.186;9.792;2023-05-10T09:12:56;6.40;;;5.78;;
51296;SDS011;37380;45.186;9.792;2023-05-10T09:15:25;14.63;;;5.95;;
51296;SDS011;37380;45.186;9.792;2023-05-10T09:17:58;9.80;;;4.47;;
51296;SDS011;37380;45.186;9.792;2023-05-10T09:20:56;4.75;;;3.10;;
51296;SDS011;37380;45.186;9.792;2023-05-10T09:23:23;6.40;;;4.18;;
51296;SDS011;37380;45.186;9.792;2023-05-10T09:26:01;6.57;;;5.88;;
51296;SDS011;37380;45.186;9.792;2023-05-10T09:28:31;4.97;;;4.30;;
51296;SDS011;37380;45.186;9.792;2023-05-10T09:30:59;5.05;;;4.53;;
51296;SDS011;37380;45.186;9.792;2023-05-10T09:33:27;4.70;;;4.28;;
51296;SDS011;37380;45.186;9.792;2023-05-10T09:35:54;7.22;;;4.75;;
51296;SDS011;37380;45.186;9.792;2023-05-10T09:38:21;5.63;;;4.30;;
51296;SDS011;37380;45.186;9.792;2023-05-10T09:40:54;5.78;;;5.28;;
51296;SDS011;37380;45.186;9.792;2023-05-10T09:43:56;4.07;;;3.70;;
51296;SDS011;37380;45.186;9.792;2023-05-10T09:46:52;8.27;;;5.97;;
51296;SDS011;37380;45.186;9.792;2023-05-10T09:49:22;4.93;;;4.07;;
51296;SDS011;37380;45.186;9.792;2023-05-10T09:52:05;7.15;;;3.40;;
51296;SDS011;37380;45.186;9.792;2023-05-10T09:54:34;6.95;;;5.00;;
51296;SDS011;37380;45.186;9.792;2023-05-10T09:57:01;6.43;;;5.32;;
51296;SDS011;37380;45.186;9.792;2023-05-10T09:59:29;4.50;;;4.10;;
51296;SDS011;37380;45.186;9.792;2023-05-10T10:01:56;5.75;;;5.03;;
51296;SDS011;37380;45.186;9.792;2023-05-10T10:04:25;12.05;;;4.97;;
51296;SDS011;37380;45.186;9.792;2023-05-10T10:06:59;5.82;;;3.78;;
51296;SDS011;37380;45.186;9.792;2023-05-10T10:09:55;7.20;;;4.43;;
51296;SDS011;37380;45.186;9.792;2023-05-10T10:12:23;9.02;;;5.97;;
51296;SDS011;37380;45.186;9.792;2023-05-10T10:14:51;7.88;;;6.90;;
51296;SDS011;37380;45.186;9.792;2023-05-10T10:17:19;6.60;;;4.38;;
51296;SDS011;37380;45.186;9.792;2023-05-10T10:19:55;4.85;;;4.32;;
51296;SDS011;37380;45.186;9.792;2023-05-10T10:22:51;3.10;;;2.88;;
51296;SDS011;37380;45.186;9.792;2023-05-10T10:25:20;6.20;;;4.90;;
51296;SDS011;37380;45.186;9.792;2023-05-10T10:33:18;4.60;;;3.25;;
51296;SDS011;37380;45.186;9.792;2023-05-10T10:36:02;4.60;;;3.67;;
51296;SDS011;37380;45.186;9.792;2023-05-10T10:38:39;4.10;;;3.78;;
51296;SDS011;37380;45.186;9.792;2023-05-10T10:41:33;5.68;;;5.10;;
51296;SDS011;37380;45.186;9.792;2023-05-10T10:44:35;10.65;;;7.55;;
51296;SDS011;37380;45.186;9.792;2023-05-10T10:52:12;7.05;;;5.40;;
51296;SDS011;37380;45.186;9.792;2023-05-10T10:54:39;4.63;;;4.20;;
51296;SDS011;37380;45.186;9.792;2023-05-10T10:57:12;6.28;;;5.70;;
51296;SDS011;37380;45.186;9.792;2023-05-10T10:59:43;8.05;;;5.03;;
51296;SDS011;37380;45.186;9.792;2023-05-10T11:08:27;4.45;;;4.10;;
51296;SDS011;37380;45.186;9.792;2023-05-10T11:11:24;4.07;;;3.55;;
51296;SDS011;37380;45.186;9.792;2023-05-10T11:13:52;5.68;;;3.85;;
51296;SDS011;37380;45.186;9.792;2023-05-10T11:16:23;6.85;;;5.05;;
51296;SDS011;37380;45.186;9.792;2023-05-10T11:18:58;6.18;;;4.28;;
51296;SDS011;37380;45.186;9.792;2023-05-10T11:24:32;2.87;;;2.67;;
51296;SDS011;37380;45.186;9.792;2023-05-10T11:27:00;4.85;;;3.90;;
51296;SDS011;37380;45.186;9.792;2023-05-10T11:29:27;3.67;;;3.38;;
51296;SDS011;37380;45.186;9.792;2023-05-10T11:31:56;3.90;;;3.60;;
51296;SDS011;37380;45.186;9.792;2023-05-10T11:34:29;5.25;;;4.68;;
51296;SDS011;37380;45.186;9.792;2023-05-10T11:36:57;16.50;;;4.88;;
51296;SDS011;37380;45.186;9.792;2023-05-10T11:39:28;4.00;;;3.67;;
51296;SDS011;37380;45.186;9.792;2023-05-10T11:41:57;3.78;;;3.40;;
51296;SDS011;37380;45.186;9.792;2023-05-10T11:44:34;3.38;;;2.88;;
51296;SDS011;37380;45.186;9.792;2023-05-10T11:47:08;4.63;;;4.20;;
51296;SDS011;37380;45.186;9.792;2023-05-10T11:50:02;5.75;;;4.35;;
51296;SDS011;37380;45.186;9.792;2023-05-10T11:52:35;4.15;;;3.80;;
51296;SDS011;37380;45.186;9.792;2023-05-10T11:55:03;7.22;;;3.72;;
51296;SDS011;37380;45.186;9.792;2023-05-10T11:57:31;4.78;;;4.18;;
51296;SDS011;37380;45.186;9.792;2023-05-10T11:59:58;6.97;;;6.35;;
51296;SDS011;37380;45.186;9.792;2023-05-10T12:02:27;6.13;;;5.60;;
51296;SDS011;37380;45.186;9.792;2023-05-10T12:05:01;9.73;;;5.60;;
51296;SDS011;37380;45.186;9.792;2023-05-10T12:08:10;4.93;;;4.43;;
51296;SDS011;37380;45.186;9.792;2023-05-10T12:11:17;12.02;;;5.90;;
51296;SDS011;37380;45.186;9.792;2023-05-10T12:13:44;5.40;;;4.82;;
51296;SDS011;37380;45.186;9.792;2023-05-10T12:16:24;5.85;;;4.63;;
51296;SDS011;37380;45.186;9.792;2023-05-10T12:19:28;5.07;;;4.57;;
51296;SDS011;37380;45.186;9.792;2023-05-10T12:22:22;4.68;;;3.40;;
51296;SDS011;37380;45.186;9.792;2023-05-10T12:24:49;5.10;;;4.60;;
51296;SDS011;37380;45.186;9.792;2023-05-10T12:27:17;3.63;;;3.25;;
51296;SDS011;37380;45.186;9.792;2023-05-10T12:29:44;3.50;;;3.20;;
51296;SDS011;37380;45.186;9.792;2023-05-10T12:32:11;2.75;;;2.55;;
51296;SDS011;37380;45.186;9.792;2023-05-10T12:34:38;3.80;;;2.58;;
51296;SDS011;37380;45.186;9.792;2023-05-10T12:37:06;7.00;;;4.45;;
51296;SDS011;37380;45.186;9.792;2023-05-10T12:39:43;5.60;;;4.13;;
51296;SDS011;37380;45.186;9.792;2023-05-10T12:42:38;7.00;;;5.65;;
51296;SDS011;37380;45.186;9.792;2023-05-10T12:45:06;6.90;;;6.20;;
51296;SDS011;37380;45.186;9.792;2023-05-10T12:47:41;4.38;;;4.05;;
51296;SDS011;37380;45.186;9.792;2023-05-10T12:50:42;4.88;;;3.55;;
51296;SDS011;37380;45.186;9.792;2023-05-10T12:53:43;5.55;;;3.63;;
51296;SDS011;37380;45.186;9.792;2023-05-10T12:56:44;4.28;;;3.17;;
51296;SDS011;37380;45.186;9.792;2023-05-10T12:59:38;6.47;;;2.97;;
51296;SDS011;37380;45.186;9.792;2023-05-10T13:02:32;4.78;;;2.97;;
51296;SDS011;37380;45.186;9.792;2023-05-10T13:04:59;3.63;;;3.22;;
51296;SDS011;37380;45.186;9.792;2023-05-10T13:07:26;3.50;;;3.20;;
51296;SDS011;37380;45.186;9.792;2023-05-10T13:09:55;8.35;;;3.83;;
51296;SDS011;37380;45.186;9.792;2023-05-10T13:12:22;5.82;;;3.40;;
51296;SDS011;37380;45.186;9.792;2023-05-10T13:14:49;3.83;;;3.53;;
51296;SDS011;37380;45.186;9.792;2023-05-10T13:17:16;4.22;;;3.63;;
51296;SDS011;37380;45.186;9.792;2023-05-10T13:19:50;6.10;;;3.47;;
51296;SDS011;37380;45.186;9.792;2023-05-10T13:22:51;3.58;;;3.28;;
51296;SDS011;37380;45.186;9.792;2023-05-10T13:25:45;6.00;;;4.03;;
51296;SDS011;37380;45.186;9.792;2023-05-10T13:28:12;3.97;;;3.67;;
51296;SDS011;37380;45.186;9.792;2023-05-10T13:30:39;7.13;;;4.10;;
51296;SDS011;37380;45.186;9.792;2023-05-10T13:33:06;3.88;;;3.58;;
51296;SDS011;37380;45.186;9.792;2023-05-10T13:35:33;5.55;;;4.80;;
51296;SDS011;37380;45.186;9.792;2023-05-10T13:38:00;6.22;;;4.60;;
51296;SDS011;37380;45.186;9.792;2023-05-10T13:40:34;4.28;;;3.90;;
51296;SDS011;37380;45.186;9.792;2023-05-10T13:43:29;4.25;;;3.85;;
51296;SDS011;37380;45.186;9.792;2023-05-10T13:45:56;3.92;;;3.63;;
51296;SDS011;37380;45.186;9.792;2023-05-10T13:48:32;4.47;;;4.07;;
51296;SDS011;37380;45.186;9.792;2023-05-10T13:51:33;5.65;;;4.03;;
51296;SDS011;37380;45.186;9.792;2023-05-10T13:54:27;7.05;;;4.45;;
51296;SDS011;37380;45.186;9.792;2023-05-10T13:57:02;5.18;;;4.68;;
51296;SDS011;37380;45.186;9.792;2023-05-10T14:00:04;4.75;;;3.95;;
51296;SDS011;37380;45.186;9.792;2023-05-10T14:02:59;4.82;;;4.40;;
51296;SDS011;37380;45.186;9.792;2023-05-10T14:05:33;5.30;;;4.88;;
51296;SDS011;37380;45.186;9.792;2023-05-10T14:08:27;11.68;;;4.57;;
51296;SDS011;37380;45.186;9.792;2023-05-10T14:10:54;7.78;;;4.28;;
51296;SDS011;37380;45.186;9.792;2023-05-10T14:13:23;4.45;;;4.10;;
51296;SDS011;37380;45.186;9.792;2023-05-10T14:15:57;4.55;;;4.13;;
51296;SDS011;37380;45.186;9.792;2023-05-10T14:18:58;5.28;;;4.78;;
51296;SDS011;37380;45.186;9.792;2023-05-10T14:21:52;5.18;;;4.68;;
51296;SDS011;37380;45.186;9.792;2023-05-10T14:24:19;5.35;;;3.88;;
51296;SDS011;37380;45.186;9.792;2023-05-10T14:26:46;3.47;;;3.22;;
51296;SDS011;37380;45.186;9.792;2023-05-10T14:29:17;7.40;;;4.18;;
51296;SDS011;37380;45.186;9.792;2023-05-10T14:31:53;4.28;;;3.88;;
51296;SDS011;37380;45.186;9.792;2023-05-10T14:34:27;4.57;;;4.28;;
51296;SDS011;37380;45.186;9.792;2023-05-10T14:37:28;8.35;;;3.85;;
51296;SDS011;37380;45.186;9.792;2023-05-10T14:40:29;4.22;;;3.88;;
51296;SDS011;37380;45.186;9.792;2023-05-10T14:43:06;3.40;;;3.15;;
51296;SDS011;37380;45.186;9.792;2023-05-10T14:45:33;5.45;;;4.15;;
51296;SDS011;37380;45.186;9.792;2023-05-10T14:48:00;5.40;;;5.00;;
51296;SDS011;37380;45.186;9.792;2023-05-10T14:50:38;5.82;;;5.10;;
51296;SDS011;37380;45.186;9.792;2023-05-10T14:53:32;3.35;;;3.05;;
51296;SDS011;37380;45.186;9.792;2023-05-10T14:56:06;4.95;;;4.30;;
51296;SDS011;37380;45.186;9.792;2023-05-10T14:59:00;3.85;;;3.55;;
51296;SDS011;37380;45.186;9.792;2023-05-10T15:01:27;4.40;;;3.45;;
51296;SDS011;37380;45.186;9.792;2023-05-10T15:03:55;11.77;;;4.30;;
51296;SDS011;37380;45.186;9.792;2023-05-10T15:06:23;4.57;;;4.28;;
51296;SDS011;37380;45.186;9.792;2023-05-10T15:12:00;3.58;;;3.38;;
51296;SDS011;37380;45.186;9.792;2023-05-10T15:14:27;3.33;;;3.03;;
51296;SDS011;37380;45.186;9.792;2023-05-10T15:16:54;4.82;;;4.43;;
51296;SDS011;37380;45.186;9.792;2023-05-10T15:19:28;3.63;;;3.33;;
51296;SDS011;37380;45.186;9.792;2023-05-10T15:22:22;4.20;;;3.85;;
51296;SDS011;37380;45.186;9.792;2023-05-10T15:24:49;3.28;;;3.00;;
51296;SDS011;37380;45.186;9.792;2023-05-10T15:27:16;8.75;;;3.80;;
51296;SDS011;37380;45.186;9.792;2023-05-10T15:29:43;3.97;;;3.67;;
51296;SDS011;37380;45.186;9.792;2023-05-10T15:32:10;6.82;;;4.28;;
51296;SDS011;37380;45.186;9.792;2023-05-10T15:34:37;2.85;;;2.65;;
51296;SDS011;37380;45.186;9.792;2023-05-10T15:37:04;7.75;;;4.07;;
51296;SDS011;37380;45.186;9.792;2023-05-10T15:39:32;4.45;;;4.03;;
51296;SDS011;37380;45.186;9.792;2023-05-10T15:41:59;4.13;;;3.70;;
51296;SDS011;37380;45.186;9.792;2023-05-10T15:44:34;7.07;;;3.92;;
51296;SDS011;37380;45.186;9.792;2023-05-10T15:47:35;4.18;;;3.88;;
51296;SDS011;37380;45.186;9.792;2023-05-10T15:50:36;3.63;;;2.85;;
51296;SDS011;37380;45.186;9.792;2023-05-10T15:53:06;7.68;;;3.55;;
51296;SDS011;37380;45.186;9.792;2023-05-10T15:55:50;3.70;;;3.40;;
51296;SDS011;37380;45.186;9.792;2023-05-10T15:58:44;4.93;;;3.58;;